sensor_id;sensor_type;location;lat;lon;timestamp;P1;durP1;ratioP1;P2;durP2;ratioP2
52067;SDS011;60237;52.338;21.228;2023-07-22T00:02:25;1257.80;;;167.90;;
52067;SDS011;60237;52.338;21.228;2023-07-22T00:04:52;1350.28;;;186.35;;
52067;SDS011;60237;52.338;21.228;2023-07-22T00:07:22;1200.75;;;158.52;;
52067;SDS011;60237;52.338;21.228;2023-07-22T00:09:48;1380.47;;;189.00;;
52067;SDS011;60237;52.338;21.228;2023-07-22T00:12:16;1226.05;;;163.45;;
52067;SDS011;60237;52.338;21.228;2023-07-22T00:14:43;1293.25;;;174.05;;
52067;SDS011;60237;52.338;21.228;2023-07-22T00:17:10;1338.00;;;182.35;;
52067;SDS011;60237;52.338;21.228;2023-07-22T00:19:37;1168.78;;;153.20;;
52067;SDS011;60237;52.338;21.228;2023-07-22T00:22:03;1197.40;;;158.48;;
52067;SDS011;60237;52.338;21.228;2023-07-22T00:24:30;1244.95;;;165.07;;
52067;SDS011;60237;52.338;21.228;2023-07-22T00:26:57;1167.88;;;152.93;;
52067;SDS011;60237;52.338;21.228;2023-07-22T00:29:24;1413.32;;;196.68;;
52067;SDS011;60237;52.338;21.228;2023-07-22T00:31:51;1225.78;;;163.63;;
52067;SDS011;60237;52.338;21.228;2023-07-22T00:34:17;1239.03;;;165.48;;
52067;SDS011;60237;52.338;21.228;2023-07-22T00:36:44;1308.65;;;178.00;;
52067;SDS011;60237;52.338;21.228;2023-07-22T00:39:13;1454.35;;;204.05;;
52067;SDS011;60237;52.338;21.228;2023-07-22T00:41:40;1201.75;;;158.57;;
52067;SDS011;60237;52.338;21.228;2023-07-22T00:44:11;1239.22;;;166.50;;
52067;SDS011;60237;52.338;21.228;2023-07-22T00:46:39;1194.53;;;158.48;;
52067;SDS011;60237;52.338;21.228;2023-07-22T00:49:07;1291.70;;;176.10;;
52067;SDS011;60237;52.338;21.228;2023-07-22T00:51:34;1220.90;;;164.25;;
52067;SDS011;60237;52.338;21.228;2023-07-22T00:54:00;1279.95;;;172.23;;
52067;SDS011;60237;52.338;21.228;2023-07-22T00:56:31;1333.82;;;183.88;;
52067;SDS011;60237;52.338;21.228;2023-07-22T00:58:59;1212.63;;;161.00;;
52067;SDS011;60237;52.338;21.228;2023-07-22T01:01:25;1234.55;;;164.90;;
52067;SDS011;60237;52.338;21.228;2023-07-22T01:03:52;1236.50;;;166.75;;
52067;SDS011;60237;52.338;21.228;2023-07-22T01:06:19;1313.88;;;179.73;;
52067;SDS011;60237;52.338;21.228;2023-07-22T01:08:46;1315.32;;;181.07;;
52067;SDS011;60237;52.338;21.228;2023-07-22T01:11:13;1300.80;;;177.25;;
52067;SDS011;60237;52.338;21.228;2023-07-22T01:13:40;1224.75;;;163.95;;
52067;SDS011;60237;52.338;21.228;2023-07-22T01:16:06;1160.32;;;152.23;;
52067;SDS011;60237;52.338;21.228;2023-07-22T01:18:33;1251.43;;;167.23;;
52067;SDS011;60237;52.338;21.228;2023-07-22T01:21:00;1215.80;;;161.43;;
52067;SDS011;60237;52.338;21.228;2023-07-22T01:23:27;1149.55;;;150.90;;
52067;SDS011;60237;52.338;21.228;2023-07-22T01:25:54;1357.15;;;187.40;;
52067;SDS011;60237;52.338;21.228;2023-07-22T01:28:22;1321.55;;;181.63;;
52067;SDS011;60237;52.338;21.228;2023-07-22T01:30:48;1221.97;;;162.52;;
52067;SDS011;60237;52.338;21.228;2023-07-22T01:33:15;1259.72;;;170.05;;
52067;SDS011;60237;52.338;21.228;2023-07-22T01:35:41;1163.45;;;153.45;;
52067;SDS011;60237;52.338;21.228;2023-07-22T01:38:08;1155.68;;;152.85;;
52067;SDS011;60237;52.338;21.228;2023-07-22T01:40:35;1302.60;;;178.70;;
52067;SDS011;60237;52.338;21.228;2023-07-22T01:43:01;1275.57;;;172.43;;
52067;SDS011;60237;52.338;21.228;2023-07-22T01:45:28;1181.75;;;157.57;;
52067;SDS011;60237;52.338;21.228;2023-07-22T01:47:54;1195.15;;;159.05;;
52067;SDS011;60237;52.338;21.228;2023-07-22T01:50:21;1215.85;;;162.07;;
52067;SDS011;60237;52.338;21.228;2023-07-22T01:52:48;1158.53;;;154.35;;
52067;SDS011;60237;52.338;21.228;2023-07-22T01:55:14;1278.63;;;173.20;;
52067;SDS011;60237;52.338;21.228;2023-07-22T01:57:41;1234.72;;;166.65;;
52067;SDS011;60237;52.338;21.228;2023-07-22T02:00:08;1340.07;;;188.75;;
52067;SDS011;60237;52.338;21.228;2023-07-22T02:02:38;30.48;;;10.15;;
52067;SDS011;60237;52.338;21.228;2023-07-22T02:05:05;28.35;;;9.45;;
52067;SDS011;60237;52.338;21.228;2023-07-22T02:07:32;44.53;;;10.77;;
52067;SDS011;60237;52.338;21.228;2023-07-22T02:09:59;28.40;;;10.23;;
52067;SDS011;60237;52.338;21.228;2023-07-22T02:12:26;27.85;;;10.13;;
52067;SDS011;60237;52.338;21.228;2023-07-22T02:14:52;39.13;;;11.35;;
52067;SDS011;60237;52.338;21.228;2023-07-22T02:17:19;48.25;;;10.60;;
52067;SDS011;60237;52.338;21.228;2023-07-22T02:19:46;28.77;;;9.55;;
52067;SDS011;60237;52.338;21.228;2023-07-22T02:22:13;41.50;;;10.27;;
52067;SDS011;60237;52.338;21.228;2023-07-22T02:24:40;29.40;;;10.05;;
52067;SDS011;60237;52.338;21.228;2023-07-22T02:27:06;85.65;;;14.20;;
52067;SDS011;60237;52.338;21.228;2023-07-22T02:29:35;33.05;;;10.73;;
52067;SDS011;60237;52.338;21.228;2023-07-22T02:32:01;26.25;;;10.32;;
52067;SDS011;60237;52.338;21.228;2023-07-22T02:34:28;32.63;;;9.75;;
52067;SDS011;60237;52.338;21.228;2023-07-22T02:36:55;37.90;;;11.15;;
52067;SDS011;60237;52.338;21.228;2023-07-22T02:39:21;51.38;;;11.98;;
52067;SDS011;60237;52.338;21.228;2023-07-22T02:41:48;37.25;;;11.50;;
52067;SDS011;60237;52.338;21.228;2023-07-22T02:44:15;40.45;;;10.57;;
52067;SDS011;60237;52.338;21.228;2023-07-22T02:46:41;24.17;;;10.05;;
52067;SDS011;60237;52.338;21.228;2023-07-22T02:49:08;40.88;;;10.77;;
52067;SDS011;60237;52.338;21.228;2023-07-22T02:51:35;26.25;;;9.60;;
52067;SDS011;60237;52.338;21.228;2023-07-22T02:54:02;21.65;;;9.00;;
52067;SDS011;60237;52.338;21.228;2023-07-22T02:56:30;33.67;;;10.93;;
52067;SDS011;60237;52.338;21.228;2023-07-22T02:58:56;32.17;;;10.40;;
52067;SDS011;60237;52.338;21.228;2023-07-22T03:01:24;30.35;;;10.55;;
52067;SDS011;60237;52.338;21.228;2023-07-22T03:03:51;38.30;;;11.85;;
52067;SDS011;60237;52.338;21.228;2023-07-22T03:06:18;60.50;;;13.75;;
52067;SDS011;60237;52.338;21.228;2023-07-22T03:08:45;27.48;;;10.45;;
52067;SDS011;60237;52.338;21.228;2023-07-22T03:11:11;36.35;;;11.32;;
52067;SDS011;60237;52.338;21.228;2023-07-22T03:13:38;38.53;;;10.77;;
52067;SDS011;60237;52.338;21.228;2023-07-22T03:16:05;101.53;;;14.77;;
52067;SDS011;60237;52.338;21.228;2023-07-22T03:18:31;51.97;;;11.65;;
52067;SDS011;60237;52.338;21.228;2023-07-22T03:20:58;29.90;;;10.82;;
52067;SDS011;60237;52.338;21.228;2023-07-22T03:23:25;16.63;;;8.90;;
52067;SDS011;60237;52.338;21.228;2023-07-22T03:25:51;26.27;;;10.30;;
52067;SDS011;60237;52.338;21.228;2023-07-22T03:28:18;37.38;;;10.68;;
52067;SDS011;60237;52.338;21.228;2023-07-22T03:30:45;28.13;;;10.90;;
52067;SDS011;60237;52.338;21.228;2023-07-22T03:33:12;109.20;;;15.85;;
52067;SDS011;60237;52.338;21.228;2023-07-22T03:35:38;40.67;;;11.32;;
52067;SDS011;60237;52.338;21.228;2023-07-22T03:38:07;29.45;;;11.40;;
52067;SDS011;60237;52.338;21.228;2023-07-22T03:40:34;34.08;;;11.32;;
52067;SDS011;60237;52.338;21.228;2023-07-22T03:43:01;19.10;;;10.07;;
52067;SDS011;60237;52.338;21.228;2023-07-22T03:45:27;40.63;;;11.02;;
52067;SDS011;60237;52.338;21.228;2023-07-22T03:47:57;33.85;;;11.48;;
52067;SDS011;60237;52.338;21.228;2023-07-22T03:50:25;35.05;;;12.02;;
52067;SDS011;60237;52.338;21.228;2023-07-22T03:52:52;34.60;;;11.65;;
52067;SDS011;60237;52.338;21.228;2023-07-22T03:55:19;32.70;;;12.32;;
52067;SDS011;60237;52.338;21.228;2023-07-22T03:57:48;39.00;;;12.02;;
52067;SDS011;60237;52.338;21.228;2023-07-22T04:00:15;78.97;;;15.75;;
52067;SDS011;60237;52.338;21.228;2023-07-22T04:02:42;22.63;;;10.82;;
52067;SDS011;60237;52.338;21.228;2023-07-22T04:05:09;40.13;;;11.70;;
52067;SDS011;60237;52.338;21.228;2023-07-22T04:07:35;29.33;;;11.75;;
52067;SDS011;60237;52.338;21.228;2023-07-22T04:10:02;28.33;;;12.38;;
52067;SDS011;60237;52.338;21.228;2023-07-22T04:12:29;38.08;;;12.43;;
52067;SDS011;60237;52.338;21.228;2023-07-22T04:14:56;37.60;;;11.50;;
52067;SDS011;60237;52.338;21.228;2023-07-22T04:17:23;29.95;;;10.90;;
52067;SDS011;60237;52.338;21.228;2023-07-22T04:19:50;35.65;;;10.35;;
52067;SDS011;60237;52.338;21.228;2023-07-22T04:22:18;41.45;;;11.15;;
52067;SDS011;60237;52.338;21.228;2023-07-22T04:24:44;35.33;;;10.55;;
52067;SDS011;60237;52.338;21.228;2023-07-22T04:27:11;109.75;;;16.55;;
52067;SDS011;60237;52.338;21.228;2023-07-22T04:29:38;35.72;;;11.75;;
52067;SDS011;60237;52.338;21.228;2023-07-22T04:32:05;31.33;;;10.38;;
52067;SDS011;60237;52.338;21.228;2023-07-22T04:34:32;43.30;;;11.10;;
52067;SDS011;60237;52.338;21.228;2023-07-22T04:36:59;29.75;;;9.57;;
52067;SDS011;60237;52.338;21.228;2023-07-22T04:39:26;55.25;;;12.55;;
52067;SDS011;60237;52.338;21.228;2023-07-22T04:41:52;42.88;;;11.85;;
52067;SDS011;60237;52.338;21.228;2023-07-22T04:44:19;35.58;;;10.43;;
52067;SDS011;60237;52.338;21.228;2023-07-22T04:46:46;63.17;;;12.60;;
52067;SDS011;60237;52.338;21.228;2023-07-22T04:49:13;47.88;;;11.30;;
52067;SDS011;60237;52.338;21.228;2023-07-22T04:51:44;37.15;;;11.75;;
52067;SDS011;60237;52.338;21.228;2023-07-22T04:54:12;88.05;;;14.35;;
52067;SDS011;60237;52.338;21.228;2023-07-22T04:56:38;30.50;;;11.70;;
52067;SDS011;60237;52.338;21.228;2023-07-22T04:59:05;38.78;;;12.70;;
52067;SDS011;60237;52.338;21.228;2023-07-22T05:01:32;31.27;;;11.20;;
52067;SDS011;60237;52.338;21.228;2023-07-22T05:03:58;58.80;;;13.45;;
52067;SDS011;60237;52.338;21.228;2023-07-22T05:06:25;46.90;;;11.35;;
52067;SDS011;60237;52.338;21.228;2023-07-22T05:08:52;26.80;;;11.05;;
52067;SDS011;60237;52.338;21.228;2023-07-22T05:11:18;174.57;;;160.32;;
52067;SDS011;60237;52.338;21.228;2023-07-22T05:13:45;48.75;;;43.42;;
52067;SDS011;60237;52.338;21.228;2023-07-22T05:16:11;38.47;;;19.02;;
52067;SDS011;60237;52.338;21.228;2023-07-22T05:18:38;54.10;;;16.20;;
52067;SDS011;60237;52.338;21.228;2023-07-22T05:21:05;37.78;;;14.18;;
52067;SDS011;60237;52.338;21.228;2023-07-22T05:23:32;24.83;;;11.55;;
52067;SDS011;60237;52.338;21.228;2023-07-22T05:25:58;40.60;;;13.63;;
52067;SDS011;60237;52.338;21.228;2023-07-22T05:28:25;42.25;;;12.05;;
52067;SDS011;60237;52.338;21.228;2023-07-22T05:30:51;38.80;;;13.10;;
52067;SDS011;60237;52.338;21.228;2023-07-22T05:33:18;103.45;;;19.50;;
52067;SDS011;60237;52.338;21.228;2023-07-22T05:35:45;32.25;;;11.60;;
52067;SDS011;60237;52.338;21.228;2023-07-22T05:38:14;39.00;;;12.35;;
52067;SDS011;60237;52.338;21.228;2023-07-22T05:40:41;27.83;;;11.57;;
52067;SDS011;60237;52.338;21.228;2023-07-22T05:43:07;39.42;;;12.63;;
52067;SDS011;60237;52.338;21.228;2023-07-22T05:45:34;37.50;;;12.40;;
52067;SDS011;60237;52.338;21.228;2023-07-22T05:48:01;18.88;;;10.88;;
52067;SDS011;60237;52.338;21.228;2023-07-22T05:50:27;31.65;;;12.80;;
52067;SDS011;60237;52.338;21.228;2023-07-22T05:52:54;38.92;;;11.70;;
52067;SDS011;60237;52.338;21.228;2023-07-22T05:55:21;22.67;;;11.68;;
52067;SDS011;60237;52.338;21.228;2023-07-22T05:57:47;38.20;;;12.50;;
52067;SDS011;60237;52.338;21.228;2023-07-22T06:00:14;58.90;;;13.85;;
52067;SDS011;60237;52.338;21.228;2023-07-22T06:02:41;65.65;;;16.02;;
52067;SDS011;60237;52.338;21.228;2023-07-22T06:05:08;39.58;;;12.25;;
52067;SDS011;60237;52.338;21.228;2023-07-22T06:07:35;27.20;;;11.05;;
52067;SDS011;60237;52.338;21.228;2023-07-22T06:10:03;50.03;;;13.88;;
52067;SDS011;60237;52.338;21.228;2023-07-22T06:12:30;34.85;;;12.02;;
52067;SDS011;60237;52.338;21.228;2023-07-22T06:14:56;29.20;;;11.68;;
52067;SDS011;60237;52.338;21.228;2023-07-22T06:17:24;76.97;;;19.73;;
52067;SDS011;60237;52.338;21.228;2023-07-22T06:19:51;34.05;;;11.70;;
52067;SDS011;60237;52.338;21.228;2023-07-22T06:22:17;43.97;;;11.50;;
52067;SDS011;60237;52.338;21.228;2023-07-22T06:24:44;55.75;;;13.40;;
52067;SDS011;60237;52.338;21.228;2023-07-22T06:27:11;96.35;;;22.40;;
52067;SDS011;60237;52.338;21.228;2023-07-22T06:29:38;61.05;;;28.27;;
52067;SDS011;60237;52.338;21.228;2023-07-22T06:32:05;37.17;;;9.40;;
52067;SDS011;60237;52.338;21.228;2023-07-22T06:34:32;27.40;;;9.77;;
52067;SDS011;60237;52.338;21.228;2023-07-22T06:36:58;41.55;;;11.95;;
52067;SDS011;60237;52.338;21.228;2023-07-22T06:39:25;57.78;;;13.75;;
52067;SDS011;60237;52.338;21.228;2023-07-22T06:41:52;23.98;;;7.22;;
52067;SDS011;60237;52.338;21.228;2023-07-22T06:44:18;51.13;;;21.10;;
52067;SDS011;60237;52.338;21.228;2023-07-22T06:46:45;40.85;;;11.52;;
52067;SDS011;60237;52.338;21.228;2023-07-22T06:49:12;58.40;;;11.60;;
52067;SDS011;60237;52.338;21.228;2023-07-22T06:51:39;48.72;;;18.13;;
52067;SDS011;60237;52.338;21.228;2023-07-22T06:54:06;69.63;;;42.38;;
52067;SDS011;60237;52.338;21.228;2023-07-22T06:56:32;30.80;;;7.95;;
52067;SDS011;60237;52.338;21.228;2023-07-22T06:58:59;36.97;;;8.73;;
52067;SDS011;60237;52.338;21.228;2023-07-22T07:01:26;23.20;;;6.25;;
52067;SDS011;60237;52.338;21.228;2023-07-22T07:03:52;36.22;;;7.43;;
52067;SDS011;60237;52.338;21.228;2023-07-22T07:06:19;92.15;;;13.35;;
52067;SDS011;60237;52.338;21.228;2023-07-22T07:08:46;26.58;;;6.53;;
52067;SDS011;60237;52.338;21.228;2023-07-22T07:11:13;55.85;;;9.27;;
52067;SDS011;60237;52.338;21.228;2023-07-22T07:13:39;50.80;;;7.22;;
52067;SDS011;60237;52.338;21.228;2023-07-22T07:16:23;42.90;;;7.18;;
52067;SDS011;60237;52.338;21.228;2023-07-22T07:18:51;31.33;;;6.15;;
52067;SDS011;60237;52.338;21.228;2023-07-22T07:21:18;83.05;;;10.88;;
52067;SDS011;60237;52.338;21.228;2023-07-22T07:23:45;31.30;;;6.25;;
52067;SDS011;60237;52.338;21.228;2023-07-22T07:26:12;24.85;;;5.00;;
52067;SDS011;60237;52.338;21.228;2023-07-22T07:28:38;33.70;;;5.32;;
52067;SDS011;60237;52.338;21.228;2023-07-22T07:31:05;32.38;;;6.30;;
52067;SDS011;60237;52.338;21.228;2023-07-22T07:33:34;57.15;;;7.65;;
52067;SDS011;60237;52.338;21.228;2023-07-22T07:36:01;31.48;;;4.88;;
52067;SDS011;60237;52.338;21.228;2023-07-22T07:38:27;36.65;;;5.70;;
52067;SDS011;60237;52.338;21.228;2023-07-22T07:41:05;70.18;;;16.95;;
52067;SDS011;60237;52.338;21.228;2023-07-22T07:43:35;67.75;;;34.15;;
52067;SDS011;60237;52.338;21.228;2023-07-22T07:46:21;15.70;;;3.72;;
52067;SDS011;60237;52.338;21.228;2023-07-22T07:48:50;34.35;;;5.47;;
52067;SDS011;60237;52.338;21.228;2023-07-22T07:51:18;83.35;;;10.18;;
52067;SDS011;60237;52.338;21.228;2023-07-22T07:53:45;31.02;;;4.47;;
52067;SDS011;60237;52.338;21.228;2023-07-22T07:56:13;43.80;;;7.72;;
52067;SDS011;60237;52.338;21.228;2023-07-22T07:58:40;63.38;;;15.57;;
52067;SDS011;60237;52.338;21.228;2023-07-22T08:01:07;27.05;;;4.75;;
52067;SDS011;60237;52.338;21.228;2023-07-22T08:03:34;100.65;;;13.77;;
52067;SDS011;60237;52.338;21.228;2023-07-22T08:06:01;44.28;;;13.38;;
52067;SDS011;60237;52.338;21.228;2023-07-22T08:08:28;54.70;;;21.27;;
52067;SDS011;60237;52.338;21.228;2023-07-22T08:11:06;20.33;;;4.35;;
52067;SDS011;60237;52.338;21.228;2023-07-22T08:13:33;28.38;;;6.38;;
52067;SDS011;60237;52.338;21.228;2023-07-22T08:16:01;18.40;;;6.75;;
52067;SDS011;60237;52.338;21.228;2023-07-22T08:18:28;49.55;;;7.15;;
52067;SDS011;60237;52.338;21.228;2023-07-22T08:20:56;32.55;;;5.53;;
52067;SDS011;60237;52.338;21.228;2023-07-22T08:23:23;28.23;;;4.30;;
52067;SDS011;60237;52.338;21.228;2023-07-22T08:25:50;22.58;;;4.82;;
52067;SDS011;60237;52.338;21.228;2023-07-22T08:28:16;26.40;;;4.90;;
52067;SDS011;60237;52.338;21.228;2023-07-22T08:30:43;45.55;;;6.40;;
52067;SDS011;60237;52.338;21.228;2023-07-22T08:33:11;63.70;;;7.63;;
52067;SDS011;60237;52.338;21.228;2023-07-22T08:35:39;40.00;;;5.10;;
52067;SDS011;60237;52.338;21.228;2023-07-22T08:38:06;17.48;;;3.05;;
52067;SDS011;60237;52.338;21.228;2023-07-22T08:40:36;27.35;;;4.47;;
52067;SDS011;60237;52.338;21.228;2023-07-22T08:43:04;22.17;;;4.00;;
52067;SDS011;60237;52.338;21.228;2023-07-22T08:45:31;26.45;;;4.30;;
52067;SDS011;60237;52.338;21.228;2023-07-22T08:47:59;33.10;;;5.72;;
52067;SDS011;60237;52.338;21.228;2023-07-22T08:50:26;36.97;;;5.18;;
52067;SDS011;60237;52.338;21.228;2023-07-22T08:52:55;20.60;;;3.65;;
52067;SDS011;60237;52.338;21.228;2023-07-22T08:55:23;25.45;;;4.90;;
52067;SDS011;60237;52.338;21.228;2023-07-22T08:57:50;41.63;;;6.22;;
52067;SDS011;60237;52.338;21.228;2023-07-22T09:00:17;53.40;;;6.80;;
52067;SDS011;60237;52.338;21.228;2023-07-22T09:02:44;24.80;;;4.78;;
52067;SDS011;60237;52.338;21.228;2023-07-22T09:05:11;34.67;;;5.82;;
52067;SDS011;60237;52.338;21.228;2023-07-22T09:07:38;27.35;;;5.57;;
52067;SDS011;60237;52.338;21.228;2023-07-22T09:10:06;19.85;;;3.90;;
52067;SDS011;60237;52.338;21.228;2023-07-22T09:12:35;22.52;;;4.18;;
52067;SDS011;60237;52.338;21.228;2023-07-22T09:15:08;18.50;;;3.80;;
52067;SDS011;60237;52.338;21.228;2023-07-22T09:17:36;42.10;;;5.53;;
52067;SDS011;60237;52.338;21.228;2023-07-22T09:20:03;33.88;;;4.97;;
52067;SDS011;60237;52.338;21.228;2023-07-22T09:22:31;42.03;;;7.10;;
52067;SDS011;60237;52.338;21.228;2023-07-22T09:27:48;30.92;;;5.30;;
52067;SDS011;60237;52.338;21.228;2023-07-22T09:30:29;72.30;;;9.82;;
52067;SDS011;60237;52.338;21.228;2023-07-22T09:32:57;34.65;;;6.45;;
52067;SDS011;60237;52.338;21.228;2023-07-22T09:35:27;29.70;;;5.63;;
52067;SDS011;60237;52.338;21.228;2023-07-22T09:37:55;18.38;;;4.75;;
52067;SDS011;60237;52.338;21.228;2023-07-22T09:40:25;31.38;;;5.05;;
52067;SDS011;60237;52.338;21.228;2023-07-22T09:42:53;32.17;;;5.05;;
52067;SDS011;60237;52.338;21.228;2023-07-22T09:45:21;79.03;;;9.43;;
52067;SDS011;60237;52.338;21.228;2023-07-22T09:47:48;67.10;;;8.60;;
52067;SDS011;60237;52.338;21.228;2023-07-22T09:50:22;46.15;;;6.70;;
52067;SDS011;60237;52.338;21.228;2023-07-22T09:55:16;34.08;;;5.68;;
52067;SDS011;60237;52.338;21.228;2023-07-22T09:57:45;144.93;;;12.50;;
52067;SDS011;60237;52.338;21.228;2023-07-22T10:00:13;52.95;;;7.20;;
52067;SDS011;60237;52.338;21.228;2023-07-22T10:02:41;60.83;;;6.25;;
52067;SDS011;60237;52.338;21.228;2023-07-22T10:05:13;23.63;;;4.50;;
52067;SDS011;60237;52.338;21.228;2023-07-22T10:07:51;34.95;;;5.78;;
52067;SDS011;60237;52.338;21.228;2023-07-22T10:10:19;15.13;;;3.28;;
52067;SDS011;60237;52.338;21.228;2023-07-22T10:12:46;41.40;;;5.88;;
52067;SDS011;60237;52.338;21.228;2023-07-22T10:15:14;50.83;;;7.60;;
52067;SDS011;60237;52.338;21.228;2023-07-22T10:17:41;35.65;;;5.20;;
52067;SDS011;60237;52.338;21.228;2023-07-22T10:20:09;33.47;;;6.78;;
52067;SDS011;60237;52.338;21.228;2023-07-22T10:22:44;32.47;;;7.90;;
52067;SDS011;60237;52.338;21.228;2023-07-22T10:25:14;24.70;;;5.40;;
52067;SDS011;60237;52.338;21.228;2023-07-22T10:27:42;47.15;;;8.82;;
52067;SDS011;60237;52.338;21.228;2023-07-22T10:30:10;46.70;;;8.48;;
52067;SDS011;60237;52.338;21.228;2023-07-22T10:41:42;35.35;;;6.65;;
52067;SDS011;60237;52.338;21.228;2023-07-22T10:44:13;34.08;;;6.68;;
52067;SDS011;60237;52.338;21.228;2023-07-22T10:46:40;19.23;;;5.32;;
52067;SDS011;60237;52.338;21.228;2023-07-22T10:49:11;40.67;;;4.80;;
52067;SDS011;60237;52.338;21.228;2023-07-22T10:51:38;24.50;;;4.57;;
52067;SDS011;60237;52.338;21.228;2023-07-22T10:54:15;24.75;;;4.63;;
52067;SDS011;60237;52.338;21.228;2023-07-22T10:56:44;16.30;;;4.15;;
52067;SDS011;60237;52.338;21.228;2023-07-22T10:59:11;16.15;;;4.35;;
52067;SDS011;60237;52.338;21.228;2023-07-22T11:01:39;29.17;;;4.28;;
52067;SDS011;60237;52.338;21.228;2023-07-22T11:04:25;69.18;;;7.55;;
52067;SDS011;60237;52.338;21.228;2023-07-22T11:07:29;23.02;;;5.55;;
52067;SDS011;60237;52.338;21.228;2023-07-22T11:09:57;32.45;;;8.40;;
52067;SDS011;60237;52.338;21.228;2023-07-22T11:12:34;32.83;;;5.63;;
52067;SDS011;60237;52.338;21.228;2023-07-22T11:15:04;26.05;;;5.20;;
52067;SDS011;60237;52.338;21.228;2023-07-22T11:17:32;24.52;;;4.20;;
52067;SDS011;60237;52.338;21.228;2023-07-22T11:20:00;25.35;;;4.93;;
52067;SDS011;60237;52.338;21.228;2023-07-22T11:22:27;27.83;;;4.45;;
52067;SDS011;60237;52.338;21.228;2023-07-22T11:24:59;169.85;;;138.05;;
52067;SDS011;60237;52.338;21.228;2023-07-22T11:27:26;76.07;;;9.30;;
52067;SDS011;60237;52.338;21.228;2023-07-22T11:29:57;40.33;;;11.75;;
52067;SDS011;60237;52.338;21.228;2023-07-22T11:32:23;92.63;;;63.92;;
52067;SDS011;60237;52.338;21.228;2023-07-22T11:34:51;151.38;;;115.18;;
52067;SDS011;60237;52.338;21.228;2023-07-22T11:37:20;61.65;;;23.38;;
52067;SDS011;60237;52.338;21.228;2023-07-22T11:39:47;170.23;;;86.80;;
52067;SDS011;60237;52.338;21.228;2023-07-22T11:42:14;34.58;;;5.40;;
52067;SDS011;60237;52.338;21.228;2023-07-22T11:44:41;34.45;;;6.20;;
52067;SDS011;60237;52.338;21.228;2023-07-22T11:47:08;42.28;;;6.80;;
52067;SDS011;60237;52.338;21.228;2023-07-22T11:49:38;25.80;;;5.22;;
52067;SDS011;60237;52.338;21.228;2023-07-22T11:52:06;41.95;;;10.20;;
52067;SDS011;60237;52.338;21.228;2023-07-22T11:54:38;35.80;;;5.68;;
52067;SDS011;60237;52.338;21.228;2023-07-22T11:57:18;25.73;;;7.32;;
52067;SDS011;60237;52.338;21.228;2023-07-22T11:59:46;43.83;;;14.60;;
52067;SDS011;60237;52.338;21.228;2023-07-22T12:02:20;31.38;;;4.53;;
52067;SDS011;60237;52.338;21.228;2023-07-22T12:04:51;58.17;;;30.42;;
52067;SDS011;60237;52.338;21.228;2023-07-22T12:07:28;45.53;;;6.45;;
52067;SDS011;60237;52.338;21.228;2023-07-22T12:09:55;104.40;;;17.70;;
52067;SDS011;60237;52.338;21.228;2023-07-22T12:12:36;103.82;;;11.98;;
52067;SDS011;60237;52.338;21.228;2023-07-22T12:15:03;30.27;;;5.13;;
52067;SDS011;60237;52.338;21.228;2023-07-22T12:17:42;24.08;;;4.20;;
52067;SDS011;60237;52.338;21.228;2023-07-22T12:20:10;32.53;;;6.72;;
52067;SDS011;60237;52.338;21.228;2023-07-22T12:22:37;57.65;;;30.73;;
52067;SDS011;60237;52.338;21.228;2023-07-22T12:25:03;62.05;;;20.02;;
52067;SDS011;60237;52.338;21.228;2023-07-22T12:27:31;63.40;;;7.63;;
52067;SDS011;60237;52.338;21.228;2023-07-22T12:29:58;25.38;;;4.78;;
52067;SDS011;60237;52.338;21.228;2023-07-22T12:32:24;30.90;;;4.78;;
52067;SDS011;60237;52.338;21.228;2023-07-22T12:34:51;25.58;;;4.25;;
52067;SDS011;60237;52.338;21.228;2023-07-22T12:37:18;27.35;;;4.47;;
52067;SDS011;60237;52.338;21.228;2023-07-22T12:39:45;29.27;;;4.65;;
52067;SDS011;60237;52.338;21.228;2023-07-22T12:42:11;30.08;;;5.03;;
52067;SDS011;60237;52.338;21.228;2023-07-22T12:44:38;18.25;;;4.20;;
52067;SDS011;60237;52.338;21.228;2023-07-22T12:47:05;42.22;;;6.07;;
52067;SDS011;60237;52.338;21.228;2023-07-22T12:49:32;38.40;;;6.05;;
52067;SDS011;60237;52.338;21.228;2023-07-22T12:51:59;53.55;;;7.32;;
52067;SDS011;60237;52.338;21.228;2023-07-22T12:54:30;49.00;;;6.55;;
52067;SDS011;60237;52.338;21.228;2023-07-22T12:56:57;24.58;;;4.38;;
52067;SDS011;60237;52.338;21.228;2023-07-22T12:59:24;33.08;;;4.75;;
52067;SDS011;60237;52.338;21.228;2023-07-22T13:01:51;29.63;;;5.15;;
52067;SDS011;60237;52.338;21.228;2023-07-22T13:04:18;22.90;;;3.83;;
52067;SDS011;60237;52.338;21.228;2023-07-22T13:06:44;26.55;;;4.38;;
52067;SDS011;60237;52.338;21.228;2023-07-22T13:09:11;17.00;;;3.80;;
52067;SDS011;60237;52.338;21.228;2023-07-22T13:11:38;22.50;;;4.00;;
52067;SDS011;60237;52.338;21.228;2023-07-22T13:14:04;17.80;;;3.70;;
52067;SDS011;60237;52.338;21.228;2023-07-22T13:16:31;27.65;;;4.30;;
52067;SDS011;60237;52.338;21.228;2023-07-22T13:18:57;37.55;;;5.68;;
52067;SDS011;60237;52.338;21.228;2023-07-22T13:21:27;86.50;;;11.52;;
52067;SDS011;60237;52.338;21.228;2023-07-22T13:23:54;27.83;;;5.28;;
52067;SDS011;60237;52.338;21.228;2023-07-22T13:26:21;50.13;;;4.85;;
52067;SDS011;60237;52.338;21.228;2023-07-22T13:28:47;20.83;;;3.40;;
52067;SDS011;60237;52.338;21.228;2023-07-22T13:31:15;27.05;;;4.53;;
52067;SDS011;60237;52.338;21.228;2023-07-22T13:33:41;41.92;;;6.78;;
52067;SDS011;60237;52.338;21.228;2023-07-22T13:36:08;19.15;;;4.90;;
52067;SDS011;60237;52.338;21.228;2023-07-22T13:38:35;14.90;;;3.33;;
52067;SDS011;60237;52.338;21.228;2023-07-22T13:41:05;46.25;;;5.80;;
52067;SDS011;60237;52.338;21.228;2023-07-22T13:43:31;52.38;;;7.57;;
52067;SDS011;60237;52.338;21.228;2023-07-22T13:45:58;21.45;;;5.78;;
52067;SDS011;60237;52.338;21.228;2023-07-22T13:48:24;79.07;;;9.60;;
52067;SDS011;60237;52.338;21.228;2023-07-22T13:50:51;24.42;;;4.35;;
52067;SDS011;60237;52.338;21.228;2023-07-22T13:53:18;19.90;;;4.18;;
52067;SDS011;60237;52.338;21.228;2023-07-22T13:55:44;21.17;;;4.18;;
52067;SDS011;60237;52.338;21.228;2023-07-22T13:58:16;22.05;;;5.47;;
52067;SDS011;60237;52.338;21.228;2023-07-22T14:00:42;27.20;;;5.00;;
52067;SDS011;60237;52.338;21.228;2023-07-22T14:03:10;33.72;;;5.53;;
52067;SDS011;60237;52.338;21.228;2023-07-22T14:05:36;36.85;;;5.63;;
52067;SDS011;60237;52.338;21.228;2023-07-22T14:08:03;19.33;;;3.30;;
52067;SDS011;60237;52.338;21.228;2023-07-22T14:10:30;44.45;;;6.88;;
52067;SDS011;60237;52.338;21.228;2023-07-22T14:12:56;70.70;;;18.27;;
52067;SDS011;60237;52.338;21.228;2023-07-22T14:15:23;74.70;;;8.43;;
52067;SDS011;60237;52.338;21.228;2023-07-22T14:17:50;22.58;;;3.92;;
52067;SDS011;60237;52.338;21.228;2023-07-22T14:20:17;25.08;;;5.13;;
52067;SDS011;60237;52.338;21.228;2023-07-22T14:22:44;14.40;;;3.38;;
52067;SDS011;60237;52.338;21.228;2023-07-22T14:25:11;23.13;;;5.80;;
52067;SDS011;60237;52.338;21.228;2023-07-22T14:27:38;53.13;;;7.60;;